createdAt,value
2018-09-12T00:02:09.953Z,95578.88
2018-09-12T00:04:38.877Z,95580.36
2018-09-12T00:07:09.363Z,95583.35
2018-09-12T00:09:38.087Z,95577.23
2018-09-12T00:12:06.888Z,95582.26
2018-09-12T00:14:35.589Z,95579.09
2018-09-12T00:17:04.375Z,95574.47
2018-09-12T00:19:33.191Z,95572.92
2018-09-12T00:22:01.940Z,95574.16
2018-09-12T00:24:30.743Z,95574.33
2018-09-12T00:26:59.474Z,95570.78
2018-09-12T00:29:28.276Z,95573.42
2018-09-12T00:31:57.000Z,95581.66
2018-09-12T00:34:25.726Z,95585.42
2018-09-12T00:36:54.510Z,95588.87
2018-09-12T00:39:23.258Z,95581.06
2018-09-12T00:41:52.009Z,95583.71
2018-09-12T00:44:20.752Z,95583.42
2018-09-12T00:46:49.486Z,95582.53
2018-09-12T00:49:18.271Z,95584.13
2018-09-12T00:51:47.032Z,95580.83
2018-09-12T00:54:15.792Z,95586.44
2018-09-12T00:56:44.540Z,95585.11
2018-09-12T00:59:13.297Z,95589.71
2018-09-12T01:01:42.044Z,95599.58
2018-09-12T01:04:10.778Z,95593.34
2018-09-12T01:06:39.516Z,95599.17
2018-09-12T01:09:08.250Z,95599.30
2018-09-12T01:11:37.030Z,95601.86
2018-09-12T01:14:05.886Z,95602.10
2018-09-12T01:16:35.259Z,95596.30
2018-09-12T01:19:04.524Z,95592.96
2018-09-12T01:21:33.290Z,95596.56
2018-09-12T01:24:02.004Z,95595.33
2018-09-12T01:26:30.808Z,95597.25
2018-09-12T01:28:59.592Z,95597.55
2018-09-12T01:31:28.385Z,95599.90
2018-09-12T01:33:57.175Z,95596.83
2018-09-12T01:36:25.921Z,95604.77
2018-09-12T01:38:54.645Z,95599.58
2018-09-12T01:41:23.433Z,95600.55
2018-09-12T01:43:52.165Z,95599.55
2018-09-12T01:46:20.855Z,95600.06
2018-09-12T01:48:49.661Z,95600.37
2018-09-12T01:51:18.415Z,95594.32
2018-09-12T01:53:47.164Z,95599.97
2018-09-12T01:56:17.231Z,95602.38
2018-09-12T01:58:45.990Z,95599.48
2018-09-12T02:01:15.373Z,95599.09
2018-09-12T02:03:44.908Z,95603.78
2018-09-12T02:06:14.051Z,95604.95
2018-09-12T02:08:43.796Z,95597.80
2018-09-12T02:11:12.546Z,95598.20
2018-09-12T02:13:41.330Z,95607.50
2018-09-12T02:16:10.047Z,95605.37
2018-09-12T02:18:38.775Z,95605.00
2018-09-12T02:21:07.550Z,95603.48
2018-09-12T02:23:36.316Z,95606.26
2018-09-12T02:26:05.126Z,95603.31
2018-09-12T02:28:33.905Z,95601.05
2018-09-12T02:31:02.927Z,95594.95
2018-09-12T02:33:31.993Z,95601.29
2018-09-12T02:36:06.058Z,95598.65
2018-09-12T02:38:34.892Z,95596.41
2018-09-12T02:41:03.878Z,95601.16
2018-09-12T02:43:32.888Z,95598.41
2018-09-12T02:46:02.087Z,95601.05
2018-09-12T02:48:31.019Z,95595.50
2018-09-12T02:50:59.939Z,95587.30
2018-09-12T02:53:28.900Z,95584.45
2018-09-12T02:55:57.854Z,95589.74
2018-09-12T02:58:26.909Z,95590.45
2018-09-12T03:00:55.840Z,95592.08
2018-09-12T03:03:24.747Z,95589.95
2018-09-12T03:05:53.712Z,95593.09
2018-09-12T03:08:22.710Z,95591.80
2018-09-12T03:10:51.683Z,95586.42
2018-09-12T03:13:20.626Z,95588.48
2018-09-12T03:15:49.584Z,95591.84
2018-09-12T03:18:18.588Z,95593.77
2018-09-12T03:20:47.800Z,95592.95
2018-09-12T03:23:16.692Z,95590.92
2018-09-12T03:25:49.994Z,95592.55
2018-09-12T03:28:19.080Z,95596.81
2018-09-12T03:30:47.837Z,95598.44
2018-09-12T03:33:16.598Z,95601.77
2018-09-12T03:35:45.367Z,95597.80
2018-09-12T03:38:14.130Z,95595.77
2018-09-12T03:40:42.918Z,95603.59
2018-09-12T03:43:11.806Z,95595.39
2018-09-12T03:45:40.545Z,95598.03
2018-09-12T03:48:09.409Z,95596.11
2018-09-12T03:50:38.273Z,95600.06
2018-09-12T03:53:07.002Z,95603.23
2018-09-12T03:55:35.745Z,95608.31
2018-09-12T03:58:05.169Z,95610.17
2018-09-12T04:00:33.993Z,95614.42
2018-09-12T04:03:02.836Z,95617.39
2018-09-12T04:05:31.639Z,95618.41
2018-09-12T04:08:00.444Z,95616.16
2018-09-12T04:10:29.254Z,95612.81
2018-09-12T04:12:58.039Z,95616.55
2018-09-12T04:15:26.848Z,95620.91
2018-09-12T04:17:55.594Z,95614.31
2018-09-12T04:20:24.459Z,95618.04
2018-09-12T04:22:53.240Z,95622.81
2018-09-12T04:25:23.282Z,95617.52
2018-09-12T04:27:52.074Z,95622.43
2018-09-12T04:30:20.954Z,95624.83
2018-09-12T04:32:49.712Z,95630.79
2018-09-12T04:35:18.504Z,95628.61
2018-09-12T04:37:47.294Z,95630.70
2018-09-12T04:40:16.083Z,95634.41
2018-09-12T04:42:44.880Z,95634.76
2018-09-12T04:45:13.799Z,95640.42
2018-09-12T04:47:49.017Z,95643.36
2018-09-12T04:50:17.850Z,95643.91
2018-09-12T04:52:46.645Z,95649.66
2018-09-12T04:55:15.671Z,95659.69
2018-09-12T04:57:44.458Z,95664.98
2018-09-12T05:00:14.372Z,95662.59
2018-09-12T05:02:43.264Z,95655.67
2018-09-12T05:05:12.058Z,95650.27
2018-09-12T05:07:40.896Z,95650.06
2018-09-12T05:10:10.212Z,95653.52
2018-09-12T05:12:39.115Z,95656.73
2018-09-12T05:15:08.244Z,95661.92
2018-09-12T05:17:37.129Z,95658.41
2018-09-12T05:20:06.094Z,95661.55
2018-09-12T05:22:34.905Z,95657.57
2018-09-12T05:25:03.727Z,95652.28
2018-09-12T05:27:32.493Z,95655.44
2018-09-12T05:30:01.327Z,95659.77
2018-09-12T05:32:30.147Z,95659.35
2018-09-12T05:34:59.001Z,95657.81
2018-09-12T05:37:27.834Z,95658.03
2018-09-12T05:39:56.578Z,95656.16
2018-09-12T05:42:25.377Z,95657.52
2018-09-12T05:44:54.137Z,95660.53
2018-09-12T05:47:22.893Z,95651.36
2018-09-12T05:49:51.752Z,95654.61
2018-09-12T05:52:20.561Z,95657.20
2018-09-12T05:54:49.394Z,95660.35
2018-09-12T05:57:18.168Z,95663.75
2018-09-12T05:59:46.904Z,95662.45
2018-09-12T06:02:15.669Z,95659.73
2018-09-12T06:04:44.351Z,95659.25
2018-09-12T06:07:13.357Z,95657.85
2018-09-12T06:09:42.086Z,95656.91
2018-09-12T06:12:10.966Z,95652.23
2018-09-12T06:14:39.711Z,95659.16
2018-09-12T06:17:08.496Z,95653.27
2018-09-12T06:19:37.294Z,95663.44
2018-09-12T06:22:06.098Z,95661.09
2018-09-12T06:24:34.864Z,95655.19
2018-09-12T06:27:03.651Z,95655.73
2018-09-12T06:29:32.692Z,95656.02
2018-09-12T06:32:01.616Z,95648.56
2018-09-12T06:34:30.625Z,95648.98
2018-09-12T06:36:59.574Z,95645.28
2018-09-12T06:39:28.550Z,95646.29
2018-09-12T06:41:57.613Z,95643.79
2018-09-12T06:44:26.564Z,95644.32
2018-09-12T06:46:55.541Z,95641.08
2018-09-12T06:49:24.482Z,95643.84
2018-09-12T06:51:53.487Z,95643.22
2018-09-12T06:54:22.518Z,95641.15
2018-09-12T06:56:51.859Z,95643.25
2018-09-12T06:59:20.733Z,95641.51
2018-09-12T07:01:49.659Z,95642.83
2018-09-12T07:04:18.554Z,95646.28
2018-09-12T07:06:47.616Z,95642.23
2018-09-12T07:09:16.516Z,95646.88
2018-09-12T07:11:45.556Z,95648.89
2018-09-12T07:14:14.533Z,95646.59
2018-09-12T07:16:44.061Z,95640.91
2018-09-12T07:19:13.058Z,95649.12
2018-09-12T07:21:42.129Z,95643.73
2018-09-12T07:24:11.048Z,95644.53
2018-09-12T07:26:39.889Z,95640.17
2018-09-12T07:29:09.119Z,95641.71
2018-09-12T07:31:38.098Z,95645.91
2018-09-12T07:34:07.237Z,95645.30
2018-09-12T07:36:36.223Z,95643.22
2018-09-12T07:39:08.384Z,95642.08
2018-09-12T07:41:37.678Z,95643.11
2018-09-12T07:44:06.907Z,95642.41
2018-09-12T07:46:36.535Z,95636.17
2018-09-12T07:49:06.504Z,95634.71
2018-09-12T07:51:35.655Z,95633.72
2018-09-12T07:54:04.778Z,95640.90
2018-09-12T07:56:33.707Z,95637.31
2018-09-12T07:59:02.667Z,95635.80
2018-09-12T08:01:31.551Z,95638.02
2018-09-12T08:04:00.629Z,95637.38
2018-09-12T08:06:29.608Z,95636.56
2018-09-12T08:08:58.665Z,95627.59
2018-09-12T08:11:27.552Z,95629.61
2018-09-12T08:13:56.509Z,95628.96
2018-09-12T08:16:25.744Z,95624.77
2018-09-12T08:18:54.879Z,95621.58
2018-09-12T08:21:23.930Z,95625.53
2018-09-12T08:23:52.893Z,95618.63
2018-09-12T08:26:21.953Z,95615.48
2018-09-12T08:28:51.136Z,95620.16
2018-09-12T08:31:20.091Z,95627.78
2018-09-12T08:33:49.027Z,95611.83
2018-09-12T08:36:18.081Z,95607.40
2018-09-12T08:38:47.269Z,95604.53
2018-09-12T08:41:16.349Z,95609.38
2018-09-12T08:43:45.323Z,95606.48
2018-09-12T08:46:14.273Z,95608.42
2018-09-12T08:48:43.202Z,95603.61
2018-09-12T08:51:12.134Z,95603.05
2018-09-12T08:53:41.132Z,95603.33
2018-09-12T08:56:10.176Z,95594.28
2018-09-12T08:58:39.114Z,95591.98
2018-09-12T09:01:08.027Z,95585.15
2018-09-12T09:03:36.965Z,95581.68
2018-09-12T09:06:06.106Z,95593.45
2018-09-12T09:08:35.466Z,95585.69
2018-09-12T09:11:04.557Z,95574.84
2018-09-12T09:13:33.573Z,95579.48
2018-09-12T09:16:02.567Z,95585.19
2018-09-12T09:18:31.568Z,95586.45
2018-09-12T09:21:00.592Z,95572.89
2018-09-12T09:23:29.495Z,95570.28
2018-09-12T09:25:58.368Z,95574.92
2018-09-12T09:28:27.264Z,95574.22
2018-09-12T09:30:56.200Z,95571.66
2018-09-12T09:33:25.233Z,95568.53
2018-09-12T09:35:54.203Z,95563.56
2018-09-12T09:38:23.285Z,95568.59
2018-09-12T09:40:52.192Z,95557.14
2018-09-12T09:43:21.101Z,95555.86
2018-09-12T09:45:50.531Z,95560.47
2018-09-12T09:48:19.521Z,95557.02
2018-09-12T09:50:48.644Z,95558.19
2018-09-12T09:53:17.704Z,95549.70
2018-09-12T09:55:46.701Z,95548.95
2018-09-12T09:58:15.612Z,95554.62
2018-09-12T10:00:49.499Z,95547.80
2018-09-12T10:03:23.576Z,95550.03
2018-09-12T10:05:57.624Z,95549.28
2018-09-12T10:08:35.656Z,95552.78
2018-09-12T10:11:04.629Z,95548.26
2018-09-12T10:13:33.560Z,95545.05
2018-09-12T10:16:02.462Z,95540.34
2018-09-12T10:18:31.825Z,95537.79
2018-09-12T10:21:00.809Z,95532.80
2018-09-12T10:23:29.723Z,95527.99
2018-09-12T10:25:58.721Z,95526.45
2018-09-12T10:28:27.619Z,95515.72
2018-09-12T10:30:56.657Z,95523.48
2018-09-12T10:33:25.631Z,95517.32
2018-09-12T10:35:54.644Z,95521.64
2018-09-12T10:38:23.588Z,95520.02
2018-09-12T10:40:52.533Z,95524.03
2018-09-12T10:43:21.545Z,95527.50
2018-09-12T10:45:50.539Z,95526.45
2018-09-12T10:48:19.596Z,95520.03
2018-09-12T10:50:48.564Z,95523.77
2018-09-12T10:53:17.552Z,95519.73
2018-09-12T10:55:46.553Z,95517.06
2018-09-12T10:58:15.474Z,95511.69
2018-09-12T11:00:44.468Z,95510.34
2018-09-12T11:03:14.750Z,95512.20
2018-09-12T11:05:43.860Z,95515.17
2018-09-12T11:08:12.896Z,95517.32
2018-09-12T11:10:41.872Z,95510.61
2018-09-12T11:13:10.739Z,95506.34
2018-09-12T11:15:39.864Z,95506.06
2018-09-12T11:18:08.858Z,95506.87
2018-09-12T11:20:37.839Z,95506.58
2018-09-12T11:23:07.216Z,95500.70
2018-09-12T11:25:36.152Z,95497.75
2018-09-12T11:28:05.108Z,95497.47
2018-09-12T11:30:34.169Z,95493.19
2018-09-12T11:33:03.054Z,95494.25
2018-09-12T11:35:32.838Z,95499.59
2018-09-12T11:38:02.061Z,95493.98
2018-09-12T11:40:31.127Z,95487.78
2018-09-12T11:43:00.041Z,95487.79
2018-09-12T11:45:29.306Z,95476.22
2018-09-12T11:47:58.297Z,95478.33
2018-09-12T11:50:27.352Z,95481.61
2018-09-12T11:52:56.362Z,95473.87
2018-09-12T11:55:25.311Z,95472.53
2018-09-12T11:57:54.277Z,95465.58
2018-09-12T12:00:23.231Z,95468.53
2018-09-12T12:02:52.181Z,95465.83
2018-09-12T12:05:21.141Z,95466.66
2018-09-12T12:07:50.084Z,95455.40
2018-09-12T12:10:19.059Z,95452.20
2018-09-12T12:12:48.000Z,95457.80
2018-09-12T12:15:16.989Z,95455.39
2018-09-12T12:17:46.242Z,95451.02
2018-09-12T12:20:15.303Z,95447.20
2018-09-12T12:22:44.272Z,95442.56
2018-09-12T12:25:13.288Z,95442.52
2018-09-12T12:27:42.357Z,95446.97
2018-09-12T12:30:11.430Z,95444.34
2018-09-12T12:32:40.502Z,95440.61
2018-09-12T12:35:09.594Z,95439.28
2018-09-12T12:37:38.515Z,95435.84
2018-09-12T12:40:07.540Z,95439.60
2018-09-12T12:42:36.568Z,95446.30
2018-09-12T12:45:05.946Z,95441.45
2018-09-12T12:47:34.894Z,95440.92
2018-09-12T12:50:03.869Z,95443.55
2018-09-12T12:52:32.826Z,95443.03
2018-09-12T12:55:01.768Z,95436.33
2018-09-12T12:57:30.653Z,95436.86
2018-09-12T12:59:59.572Z,95431.49
2018-09-12T13:02:28.480Z,95430.73
2018-09-12T13:04:57.435Z,95426.17
2018-09-12T13:07:26.324Z,95435.27
2018-09-12T13:09:55.255Z,95429.44
2018-09-12T13:12:24.224Z,95433.16
2018-09-12T13:14:53.255Z,95428.89
2018-09-12T13:17:22.606Z,95429.36
2018-09-12T13:19:51.533Z,95430.70
2018-09-12T13:22:20.560Z,95423.17
2018-09-12T13:24:49.771Z,95416.72
2018-09-12T13:27:18.696Z,95416.41
2018-09-12T13:29:48.676Z,95417.45
2018-09-12T13:32:17.779Z,95411.85
2018-09-12T13:34:46.701Z,95415.41
2018-09-12T13:37:15.651Z,95412.69
2018-09-12T13:39:44.709Z,95416.47
2018-09-12T13:42:13.661Z,95411.91
2018-09-12T13:44:42.582Z,95414.13
2018-09-12T13:47:11.515Z,95418.95
2018-09-12T13:49:40.489Z,95419.50
2018-09-12T13:52:09.483Z,95413.61
2018-09-12T13:54:38.522Z,95414.39
2018-09-12T13:57:07.871Z,95411.70
2018-09-12T13:59:36.935Z,95401.54
2018-09-12T14:02:05.963Z,95403.15
2018-09-12T14:04:34.870Z,95406.89
2018-09-12T14:07:03.864Z,95405.03
2018-09-12T14:09:32.858Z,95401.28
2018-09-12T14:12:02.124Z,95395.91
2018-09-12T14:14:31.164Z,95403.41
2018-09-12T14:17:00.078Z,95398.05
2018-09-12T14:19:29.030Z,95395.38
2018-09-12T14:21:58.120Z,95400.43
2018-09-12T14:24:27.002Z,95402.05
2018-09-12T14:26:55.899Z,95400.16
2018-09-12T14:29:24.774Z,95399.38
2018-09-12T14:31:53.862Z,95401.55
2018-09-12T14:34:22.746Z,95401.81
2018-09-12T14:36:51.715Z,95392.16
2018-09-12T14:39:20.821Z,95394.86
2018-09-12T14:41:49.988Z,95394.83
2018-09-12T14:44:19.091Z,95388.94
2018-09-12T14:46:48.131Z,95396.97
2018-09-12T14:49:17.303Z,95388.40
2018-09-12T14:51:46.251Z,95384.14
2018-09-12T14:54:15.180Z,95386.26
2018-09-12T14:56:44.098Z,95384.14
2018-09-12T14:59:12.909Z,95381.19
2018-09-12T15:01:41.728Z,95387.86
2018-09-12T15:04:10.567Z,95382.00
2018-09-12T15:06:39.453Z,95387.05
2018-09-12T15:09:11.066Z,95380.30
2018-09-12T15:11:40.131Z,95376.81
2018-09-12T15:14:09.360Z,95383.51
2018-09-12T15:16:38.230Z,95374.66
2018-09-12T15:19:07.011Z,95373.03
2018-09-12T15:21:35.947Z,95369.79
2018-09-12T15:24:04.788Z,95376.77
2018-09-12T15:26:33.790Z,95374.06
2018-09-12T15:29:02.710Z,95385.27
2018-09-12T15:31:31.559Z,95388.75
2018-09-12T15:34:00.415Z,95385.28
2018-09-12T15:36:29.244Z,95389.04
2018-09-12T15:38:58.150Z,95381.80
2018-09-12T15:41:27.095Z,95377.48
2018-09-12T15:43:56.102Z,95387.67
2018-09-12T15:46:24.976Z,95386.84
2018-09-12T15:48:53.826Z,95389.28
2018-09-12T15:51:22.650Z,95381.50
2018-09-12T15:53:51.570Z,95377.48
2018-09-12T15:56:20.496Z,95373.75
2018-09-12T15:58:49.411Z,95377.77
2018-09-12T16:01:18.208Z,95367.09
2018-09-12T16:03:47.148Z,95367.91
2018-09-12T16:06:16.231Z,95357.72
2018-09-12T16:08:45.065Z,95353.98
2018-09-12T16:11:13.899Z,95360.92
2018-09-12T16:13:42.807Z,95355.58
2018-09-12T16:16:11.854Z,95350.47
2018-09-12T16:18:40.646Z,95352.61
2018-09-12T16:21:09.447Z,95356.33
2018-09-12T16:23:38.336Z,95352.59
2018-09-12T16:26:07.309Z,95353.06
2018-09-12T16:28:36.299Z,95356.80
2018-09-12T16:31:05.148Z,95358.67
2018-09-12T16:33:33.995Z,95358.68
2018-09-12T16:36:02.876Z,95360.25
2018-09-12T16:38:31.685Z,95361.03
2018-09-12T16:41:00.652Z,95361.55
2018-09-12T16:43:29.502Z,95359.92
2018-09-12T16:45:59.323Z,95356.40
2018-09-12T16:48:28.762Z,95353.75
2018-09-12T16:50:57.914Z,95356.92
2018-09-12T16:53:26.725Z,95358.23
2018-09-12T16:55:55.536Z,95347.50
2018-09-12T16:58:24.469Z,95349.63
2018-09-12T17:00:53.404Z,95356.52
2018-09-12T17:03:22.294Z,95354.38
2018-09-12T17:05:51.161Z,95355.12
2018-09-12T17:08:20.000Z,95359.10
2018-09-12T17:10:48.850Z,95354.73
2018-09-12T17:13:19.976Z,95354.98
2018-09-12T17:15:49.013Z,95363.22
2018-09-12T17:18:17.803Z,95362.42
2018-09-12T17:20:46.662Z,95360.75
2018-09-12T17:23:15.839Z,95365.26
2018-09-12T17:25:44.994Z,95364.95
2018-09-12T17:28:13.807Z,95368.95
2018-09-12T17:30:43.147Z,95370.02
2018-09-12T17:33:12.026Z,95365.98
2018-09-12T17:35:40.843Z,95369.42
2018-09-12T17:38:09.866Z,95379.26
2018-09-12T17:40:38.711Z,95373.89
2018-09-12T17:43:07.514Z,95374.73
2018-09-12T17:45:36.285Z,95366.72
2018-09-12T17:48:05.122Z,95369.67
2018-09-12T17:50:34.075Z,95373.12
2018-09-12T17:53:02.916Z,95377.61
2018-09-12T17:55:32.023Z,95375.75
2018-09-12T17:58:01.078Z,95378.14
2018-09-12T18:00:30.350Z,95381.80
2018-09-12T18:02:59.469Z,95380.44
2018-09-12T18:05:28.372Z,95383.84
2018-09-12T18:07:57.384Z,95385.34
2018-09-12T18:10:26.213Z,95395.17
2018-09-12T18:12:56.314Z,95394.83
2018-09-12T18:15:25.545Z,95396.97
2018-09-12T18:17:54.349Z,95392.41
2018-09-12T18:20:23.128Z,95392.97
2018-09-12T18:22:52.200Z,95396.72
2018-09-12T18:25:21.046Z,95396.22
2018-09-12T18:27:49.894Z,95403.11
2018-09-12T18:30:21.850Z,95397.77
2018-09-12T18:32:50.820Z,95402.83
2018-09-12T18:35:19.701Z,95407.70
2018-09-12T18:37:48.626Z,95406.30
2018-09-12T18:40:17.389Z,95409.49
2018-09-12T18:42:46.280Z,95413.48
2018-09-12T18:45:15.142Z,95417.48
2018-09-12T18:47:43.944Z,95415.88
2018-09-12T18:50:13.291Z,95412.36
2018-09-12T18:52:42.076Z,95421.66
2018-09-12T18:55:10.914Z,95421.61
2018-09-12T18:57:39.740Z,95417.29
2018-09-12T19:00:08.650Z,95423.62
2018-09-12T19:02:37.525Z,95420.68
2018-09-12T19:05:07.095Z,95420.96
2018-09-12T19:07:35.879Z,95416.92
2018-09-12T19:10:04.823Z,95420.83
2018-09-12T19:12:33.604Z,95419.74
2018-09-12T19:15:02.370Z,95418.64
2018-09-12T19:17:31.315Z,95416.47
2018-09-12T19:20:00.177Z,95416.70
2018-09-12T19:22:29.163Z,95410.24
2018-09-12T19:24:58.022Z,95417.14
2018-09-12T19:27:26.865Z,95419.76
2018-09-12T19:29:55.808Z,95421.38
2018-09-12T19:32:24.695Z,95422.47
2018-09-12T19:34:53.466Z,95418.99
2018-09-12T19:37:22.215Z,95414.23
2018-09-12T19:39:51.121Z,95408.66
2018-09-12T19:42:19.986Z,95406.48
2018-09-12T19:44:48.820Z,95405.62
2018-09-12T19:47:17.633Z,95408.68
2018-09-12T19:49:46.536Z,95410.52
2018-09-12T19:52:15.517Z,95406.77
2018-09-12T19:54:44.789Z,95406.54
2018-09-12T19:57:13.811Z,95408.38
2018-09-12T19:59:43.124Z,95405.20
2018-09-12T20:02:12.011Z,95405.44
2018-09-12T20:04:41.002Z,95406.29
2018-09-12T20:07:09.808Z,95403.86
2018-09-12T20:09:39.116Z,95401.88
2018-09-12T20:12:08.360Z,95401.79
2018-09-12T20:14:37.156Z,95405.98
2018-09-12T20:17:06.516Z,95405.73
2018-09-12T20:19:35.329Z,95410.72
2018-09-12T20:22:05.902Z,95412.25
2018-09-12T20:24:34.793Z,95415.38
2018-09-12T20:27:03.619Z,95411.62
2018-09-12T20:29:32.608Z,95411.56
2018-09-12T20:32:02.111Z,95409.94
2018-09-12T20:34:31.010Z,95410.41
2018-09-12T20:36:59.931Z,95407.23
2018-09-12T20:39:28.860Z,95404.57
2018-09-12T20:41:57.944Z,95398.95
2018-09-12T20:44:26.876Z,95402.43
2018-09-12T20:46:55.682Z,95402.67
2018-09-12T20:49:24.495Z,95401.52
2018-09-12T20:51:53.274Z,95401.17
2018-09-12T20:54:22.176Z,95403.82
2018-09-12T20:56:51.239Z,95403.72
2018-09-12T20:59:20.127Z,95404.47
2018-09-12T21:01:49.099Z,95399.56
2018-09-12T21:04:17.992Z,95400.83
2018-09-12T21:06:46.834Z,95394.65
2018-09-12T21:09:15.702Z,95397.31
2018-09-12T21:11:44.480Z,95399.66
2018-09-12T21:14:13.264Z,95399.33
2018-09-12T21:16:42.141Z,95400.30
2018-09-12T21:19:10.936Z,95399.44
2018-09-12T21:21:39.771Z,95402.77
2018-09-12T21:24:08.688Z,95401.23
2018-09-12T21:26:37.649Z,95401.12
2018-09-12T21:29:06.543Z,95397.12
2018-09-12T21:31:35.372Z,95397.77
2018-09-12T21:34:04.367Z,95398.20
2018-09-12T21:36:33.222Z,95388.53
2018-09-12T21:39:02.096Z,95393.73
2018-09-12T21:41:30.987Z,95391.80
2018-09-12T21:43:59.860Z,95384.75
2018-09-12T21:46:28.884Z,95384.01
2018-09-12T21:48:57.659Z,95382.77
2018-09-12T21:51:26.603Z,95385.53
2018-09-12T21:53:55.437Z,95381.88
2018-09-12T21:56:24.386Z,95380.13
2018-09-12T21:58:53.547Z,95383.19
2018-09-12T22:01:25.241Z,95378.27
2018-09-12T22:03:54.757Z,95378.47
2018-09-12T22:06:23.982Z,95380.41
2018-09-12T22:08:52.827Z,95376.05
2018-09-12T22:11:22.143Z,95380.70
2018-09-12T22:13:51.024Z,95385.56
2018-09-12T22:16:19.855Z,95380.13
2018-09-12T22:18:48.649Z,95380.91
2018-09-12T22:21:17.707Z,95381.00
2018-09-12T22:23:46.512Z,95383.87
2018-09-12T22:26:15.316Z,95383.21
2018-09-12T22:28:44.224Z,95379.93
2018-09-12T22:31:13.152Z,95382.64
2018-09-12T22:33:41.958Z,95371.73
2018-09-12T22:36:10.750Z,95368.39
2018-09-12T22:38:39.574Z,95364.92
2018-09-12T22:41:08.373Z,95368.91
2018-09-12T22:43:37.164Z,95367.28
2018-09-12T22:46:06.117Z,95369.66
2018-09-12T22:48:35.098Z,95367.80
2018-09-12T22:51:04.147Z,95370.23
2018-09-12T22:53:32.923Z,95371.36
2018-09-12T22:56:01.775Z,95362.32
2018-09-12T22:58:30.762Z,95358.22
2018-09-12T23:00:59.640Z,95356.52
2018-09-12T23:03:28.477Z,95360.84
2018-09-12T23:05:57.471Z,95361.06
2018-09-12T23:08:26.319Z,95358.13
2018-09-12T23:10:55.115Z,95354.66
2018-09-12T23:13:24.425Z,95360.42
2018-09-12T23:15:53.194Z,95354.57
2018-09-12T23:18:21.979Z,95347.52
2018-09-12T23:20:50.849Z,95351.50
2018-09-12T23:23:19.731Z,95347.81
2018-09-12T23:25:48.582Z,95346.48
2018-09-12T23:28:17.491Z,95351.79
2018-09-12T23:30:46.299Z,95349.59
2018-09-12T23:33:15.255Z,95347.14
2018-09-12T23:35:44.144Z,95352.16
2018-09-12T23:38:12.984Z,95351.58
2018-09-12T23:40:41.759Z,95344.78
2018-09-12T23:43:10.578Z,95344.17
2018-09-12T23:45:39.564Z,95341.69
2018-09-12T23:48:08.587Z,95343.63
2018-09-12T23:50:37.387Z,95335.41
2018-09-12T23:53:06.375Z,95337.53
2018-09-12T23:55:35.245Z,95340.65
2018-09-12T23:58:04.056Z,95336.66
